Terminal Aerodrome Forecast
Issued by NWS Mt. Holly, NJ

Home | Current Version | Previous Version | Text Only | Print | Product List | Glossary On
Versions: 1 2 3 4 5 6 7 8 9 10 11 12 13 14 15 16 17 18 19 20 21 22 23 24 25 26 27 28 29 30 31 32 33
000
FTUS41 KPHI 021700
TAFPHL
TAF
KPHL 021720Z 0218/0324 23010G18KT P6SM SCT040 BKN150
     FM030100 23010KT P6SM VCSH BKN050
     FM030400 29007KT P6SM SCT250
     FM030800 32005KT P6SM SCT150=

USA.gov is the U.S. government's official web portal to all federal, state and local government web resources and services.